Time;durP1;ratioP1;P1;durP2;ratioP2;P2;SDS_P1;SDS_P2;PMS_P1;PMS_P2;Temp;Humidity;BMP_temperature;BMP_pressure;BME280_temperature;BME280_humidity;BME280_pressure;Samples;Min_cycle;Max_cycle;Signal;HPM_P1;HPM_P2
2023/10/13 00:01:23;;;;;;;68.73;28.63;;;;;;;;;;5092726;28;20077;-62
2023/10/13 00:03:50;;;;;;;71.25;28.45;;;;;;;;;;5095444;28;20051;-62
2023/10/13 00:06:18;;;;;;;65.03;27.05;;;;;;;;;;5110493;28;20396;-62
2023/10/13 00:08:44;;;;;;;68.07;27.40;;;;;;;;;;5075308;28;20055;-62
2023/10/13 00:11:13;;;;;;;61.10;25.60;;;;;;;;;;5084509;28;20036;-62
2023/10/13 00:13:49;;;;;;;60.55;26.23;;;;;;;;;;5088225;28;20052;-62
2023/10/13 00:16:21;;;;;;;61.22;25.55;;;;;;;;;;5111696;28;20062;-63
2023/10/13 00:18:48;;;;;;;58.35;24.13;;;;;;;;;;5113304;28;20488;-63
2023/10/13 00:21:15;;;;;;;55.33;22.40;;;;;;;;;;5111610;28;20055;-63
2023/10/13 00:23:54;;;;;;;53.72;24.90;;;;;;;;;;5108853;28;20088;-63
2023/10/13 00:26:26;;;;;;;50.58;23.50;;;;;;;;;;5100207;28;20047;-63
2023/10/13 00:31:33;;;;;;;43.78;19.98;;;;;;;;;;5072476;28;20078;-62
2023/10/13 00:34:09;;;;;;;45.28;21.38;;;;;;;;;;5063002;28;20043;-62
2023/10/13 00:36:36;;;;;;;48.05;21.23;;;;;;;;;;5112001;28;20052;-62
2023/10/13 00:39:06;;;;;;;55.08;21.65;;;;;;;;;;5101302;28;20048;-62
2023/10/13 00:41:59;;;;;;;44.60;20.40;;;;;;;;;;5083256;28;20037;-62
2023/10/13 00:44:37;;;;;;;43.70;19.95;;;;;;;;;;5085735;28;20047;-63
2023/10/13 00:47:07;;;;;;;39.80;18.90;;;;;;;;;;5066571;28;20108;-62
2023/10/13 00:49:38;;;;;;;39.85;18.40;;;;;;;;;;5080385;28;20056;-62
2023/10/13 00:52:04;;;;;;;34.65;18.95;;;;;;;;;;5075632;28;20051;-62
2023/10/13 00:54:30;;;;;;;36.13;16.48;;;;;;;;;;5080934;28;20119;-62
2023/10/13 00:57:07;;;;;;;40.72;18.42;;;;;;;;;;5076313;28;21646;-63
2023/10/13 00:59:36;;;;;;;34.83;17.17;;;;;;;;;;5076172;28;20051;-63
2023/10/13 01:02:37;;;;;;;35.38;18.52;;;;;;;;;;5081777;28;20620;-63
2023/10/13 01:04:48;;;;;;;44.30;18.60;;;;;;;;;;5081377;28;20040;-63
2023/10/13 01:07:22;;;;;;;44.75;21.10;;;;;;;;;;5088447;28;20066;-63
2023/10/13 01:09:48;;;;;;;47.00;19.02;;;;;;;;;;5091108;28;20081;-63
2023/10/13 01:12:14;;;;;;;41.25;20.23;;;;;;;;;;5081062;28;20106;-63
2023/10/13 01:14:41;;;;;;;35.90;17.42;;;;;;;;;;5092087;28;20523;-63
2023/10/13 01:17:07;;;;;;;46.75;20.75;;;;;;;;;;5091916;28;20131;-62
2023/10/13 01:19:42;;;;;;;42.70;19.95;;;;;;;;;;5092203;28;20127;-62
2023/10/13 01:22:09;;;;;;;47.38;19.60;;;;;;;;;;5106485;28;20116;-62
2023/10/13 01:24:35;;;;;;;42.72;19.60;;;;;;;;;;5103032;28;20043;-62
2023/10/13 01:27:17;;;;;;;49.25;20.98;;;;;;;;;;5098315;28;20055;-63
2023/10/13 01:29:48;;;;;;;39.00;19.75;;;;;;;;;;5107653;28;20071;-63
2023/10/13 01:32:15;;;;;;;48.92;20.23;;;;;;;;;;5095014;28;20124;-63
2023/10/13 01:34:45;;;;;;;46.38;20.58;;;;;;;;;;5101271;28;20456;-63
2023/10/13 01:37:11;;;;;;;49.67;20.55;;;;;;;;;;5113124;28;20403;-63
2023/10/13 01:39:38;;;;;;;45.15;19.73;;;;;;;;;;5075180;28;20086;-63
2023/10/13 01:42:06;;;;;;;45.85;20.80;;;;;;;;;;5095310;28;20047;-63
2023/10/13 01:44:32;;;;;;;50.13;20.45;;;;;;;;;;5116012;28;20054;-63
2023/10/13 01:46:59;;;;;;;48.45;20.60;;;;;;;;;;5091096;27;20044;-63
2023/10/13 01:49:25;;;;;;;48.25;21.30;;;;;;;;;;5081299;28;20481;-62
2023/10/13 01:51:51;;;;;;;46.00;22.35;;;;;;;;;;5080124;28;20519;-63
2023/10/13 01:54:17;;;;;;;52.17;21.13;;;;;;;;;;5081042;28;20044;-62
2023/10/13 01:56:43;;;;;;;51.88;20.75;;;;;;;;;;5081185;28;20047;-62
2023/10/13 01:59:10;;;;;;;50.60;21.27;;;;;;;;;;5083466;28;21958;-62
2023/10/13 02:01:37;;;;;;;53.45;22.85;;;;;;;;;;5084619;28;20560;-62
2023/10/13 02:04:03;;;;;;;53.35;22.60;;;;;;;;;;5081265;28;20047;-62
2023/10/13 02:06:34;;;;;;;50.50;23.55;;;;;;;;;;5087140;28;20112;-62
2023/10/13 02:09:10;;;;;;;48.50;23.70;;;;;;;;;;5081751;28;20048;-62
2023/10/13 02:11:37;;;;;;;51.90;24.05;;;;;;;;;;5084668;28;20484;-62
2023/10/13 02:14:03;;;;;;;53.13;25.45;;;;;;;;;;5085630;28;20048;-62
2023/10/13 02:16:30;;;;;;;54.97;24.65;;;;;;;;;;5090717;28;20088;-62
2023/10/13 02:18:57;;;;;;;53.05;25.85;;;;;;;;;;5080031;28;20052;-62
2023/10/13 02:21:31;;;;;;;53.72;27.25;;;;;;;;;;5083642;28;20050;-62
2023/10/13 02:24:00;;;;;;;49.13;25.02;;;;;;;;;;5085900;28;20040;-62
2023/10/13 02:26:30;;;;;;;44.85;23.45;;;;;;;;;;5083833;28;20044;-62
2023/10/13 02:29:07;;;;;;;46.22;23.95;;;;;;;;;;5083954;28;20040;-62
2023/10/13 02:31:33;;;;;;;44.60;24.00;;;;;;;;;;5085715;28;20051;-62
2023/10/13 02:34:00;;;;;;;40.00;21.73;;;;;;;;;;5084031;28;20159;-62
2023/10/13 02:36:36;;;;;;;41.78;21.55;;;;;;;;;;5079207;28;20067;-62
2023/10/13 02:39:08;;;;;;;34.15;19.38;;;;;;;;;;5082722;28;20056;-62
2023/10/13 02:41:38;;;;;;;30.40;17.85;;;;;;;;;;5080028;28;20328;-62
2023/10/13 02:44:06;;;;;;;33.45;17.80;;;;;;;;;;5080693;28;20040;-62
2023/10/13 02:46:35;;;;;;;29.50;16.85;;;;;;;;;;5083195;28;20052;-62
2023/10/13 02:49:09;;;;;;;36.28;19.73;;;;;;;;;;5079249;28;20052;-62
2023/10/13 02:51:41;;;;;;;36.13;18.88;;;;;;;;;;5080151;28;20040;-62
2023/10/13 02:54:11;;;;;;;41.33;20.80;;;;;;;;;;5079003;28;20487;-63
2023/10/13 02:56:47;;;;;;;42.63;20.73;;;;;;;;;;5083985;28;20093;-64
2023/10/13 02:59:14;;;;;;;47.60;22.20;;;;;;;;;;5080511;28;20044;-63
2023/10/13 03:01:40;;;;;;;49.15;23.33;;;;;;;;;;5089193;28;20089;-63
2023/10/13 03:04:08;;;;;;;49.92;24.42;;;;;;;;;;5090651;28;20391;-63
2023/10/13 03:06:35;;;;;;;55.20;26.38;;;;;;;;;;5079796;28;20064;-63
2023/10/13 03:09:18;;;;;;;51.58;24.17;;;;;;;;;;5094326;28;20104;-63
2023/10/13 03:11:50;;;;;;;51.70;24.98;;;;;;;;;;5096793;28;20048;-63
2023/10/13 03:14:31;;;;;;;48.00;22.20;;;;;;;;;;5084589;28;20083;-63
2023/10/13 03:17:14;;;;;;;50.63;24.20;;;;;;;;;;5094184;28;20040;-64
2023/10/13 03:19:50;;;;;;;52.00;23.40;;;;;;;;;;5104588;28;20054;-64
2023/10/13 03:22:16;;;;;;;43.38;22.77;;;;;;;;;;5097891;28;20052;-63
2023/10/13 03:24:46;;;;;;;44.97;23.17;;;;;;;;;;5092542;28;20062;-64
2023/10/13 03:27:23;;;;;;;45.47;22.83;;;;;;;;;;5092474;28;20036;-64
2023/10/13 03:29:54;;;;;;;40.75;20.52;;;;;;;;;;5091446;28;20093;-64
2023/10/13 03:32:20;;;;;;;36.60;19.58;;;;;;;;;;5091916;28;20048;-64
2023/10/13 03:35:06;;;;;;;34.45;18.77;;;;;;;;;;5091882;28;20044;-64
2023/10/13 03:37:38;;;;;;;36.25;18.92;;;;;;;;;;5093415;28;20404;-64
2023/10/13 03:45:42;;;;;;;37.55;18.33;;;;;;;;;;5093624;28;20048;-64
2023/10/13 03:51:01;;;;;;;41.17;20.30;;;;;;;;;;5075815;28;20040;-64
2023/10/13 03:53:33;;;;;;;42.08;21.15;;;;;;;;;;5090148;28;20074;-63
2023/10/13 03:56:11;;;;;;;43.08;20.27;;;;;;;;;;5098995;28;20093;-63
2023/10/13 03:58:39;;;;;;;42.40;19.33;;;;;;;;;;5104446;28;20036;-63
2023/10/13 04:01:05;;;;;;;49.72;21.65;;;;;;;;;;5092663;28;20119;-63
2023/10/13 04:03:36;;;;;;;50.17;20.35;;;;;;;;;;5091422;28;20077;-64
2023/10/13 04:06:06;;;;;;;;;;;;;;;;;;5091696;28;20443;-63
2023/10/13 04:08:47;;;;;;;45.35;20.40;;;;;;;;;;5091963;28;19919;-64
2023/10/13 04:16:54;;;;;;;49.35;20.92;;;;;;;;;;5079184;28;20419;-64
2023/10/13 04:19:22;;;;;;;40.92;21.23;;;;;;;;;;5089905;28;20043;-64
2023/10/13 04:21:57;;;;;;;45.05;20.90;;;;;;;;;;5085445;28;20044;-63
2023/10/13 04:24:39;;;;;;;43.55;20.05;;;;;;;;;;5091432;28;20067;-63
2023/10/13 04:32:15;;;;;;;42.00;20.38;;;;;;;;;;5088495;28;20093;-65
2023/10/13 04:34:45;;;;;;;45.05;19.48;;;;;;;;;;5074217;28;20117;-65
2023/10/13 04:37:30;;;;;;;43.20;21.38;;;;;;;;;;5089760;28;20044;-65
2023/10/13 04:40:00;;;;;;;38.17;20.08;;;;;;;;;;5093267;28;20462;-65
2023/10/13 04:50:47;;;;;;;37.03;18.70;;;;;;;;;;5089698;28;20069;-67
2023/10/13 04:53:28;;;;;;;35.90;16.65;;;;;;;;;;5090060;28;20089;-63
2023/10/13 05:04:08;;;;;;;30.25;15.30;;;;;;;;;;5095949;28;20048;-65
2023/10/13 05:48:11;;;;;;;18.33;10.65;;;;;;;;;;5036602;28;20041;-63
2023/10/13 06:29:12;;;;;;;13.80;8.50;;;;;;;;;;5027959;28;20049;-66
2023/10/13 06:31:43;;;;;;;14.82;8.65;;;;;;;;;;5030357;28;20089;-65
2023/10/13 06:34:09;;;;;;;9.25;6.18;;;;;;;;;;5025588;28;20058;-65
2023/10/13 06:36:35;;;;;;;11.30;7.47;;;;;;;;;;5030048;28;20064;-65
2023/10/13 06:41:46;;;;;;;10.68;7.45;;;;;;;;;;5094212;28;20052;-65
2023/10/13 06:44:15;;;;;;;11.27;6.45;;;;;;;;;;5091997;28;20036;-64
2023/10/13 06:46:41;;;;;;;9.02;5.32;;;;;;;;;;5090072;28;20489;-61
2023/10/13 06:49:09;;;;;;;10.18;6.32;;;;;;;;;;5092932;28;20054;-62
2023/10/13 06:51:37;;;;;;;12.55;5.15;;;;;;;;;;5092651;28;20044;-62
2023/10/13 06:54:08;;;;;;;14.07;6.20;;;;;;;;;;5090873;28;20069;-63
2023/10/13 06:56:39;;;;;;;11.65;6.72;;;;;;;;;;5088910;28;20062;-63
2023/10/13 06:59:05;;;;;;;14.43;6.55;;;;;;;;;;5090372;28;20056;-63
2023/10/13 07:01:38;;;;;;;14.60;6.03;;;;;;;;;;5091569;28;20058;-62
2023/10/13 07:04:05;;;;;;;9.80;4.80;;;;;;;;;;5090642;28;20454;-62
2023/10/13 07:06:33;;;;;;;13.75;4.60;;;;;;;;;;5092369;28;20468;-63
2023/10/13 07:09:04;;;;;;;11.32;5.40;;;;;;;;;;5093366;28;20400;-62
2023/10/13 07:11:33;;;;;;;12.40;4.82;;;;;;;;;;5088016;28;20059;-62
2023/10/13 07:14:11;;;;;;;13.63;5.45;;;;;;;;;;5093293;28;20052;-62
2023/10/13 07:16:46;;;;;;;16.25;6.15;;;;;;;;;;5104918;28;20071;-62
2023/10/13 07:19:16;;;;;;;16.70;5.82;;;;;;;;;;5099044;28;20048;-62
2023/10/13 07:21:45;;;;;;;12.35;5.22;;;;;;;;;;5105547;28;20048;-62
2023/10/13 07:24:11;;;;;;;18.58;6.38;;;;;;;;;;5092320;28;20059;-62
2023/10/13 07:26:45;;;;;;;19.90;6.38;;;;;;;;;;5090933;28;20072;-62
2023/10/13 07:29:11;;;;;;;14.48;5.63;;;;;;;;;;5088536;28;20105;-63
2023/10/13 07:31:40;;;;;;;13.43;5.25;;;;;;;;;;5100432;28;20048;-62
2023/10/13 07:34:12;;;;;;;18.55;5.75;;;;;;;;;;5112212;28;20040;-62
2023/10/13 07:36:43;;;;;;;17.48;6.13;;;;;;;;;;5090078;28;20504;-62
2023/10/13 07:39:20;;;;;;;15.85;5.50;;;;;;;;;;5093004;28;20404;-62
2023/10/13 07:41:51;;;;;;;15.40;5.35;;;;;;;;;;5092445;28;20059;-61
2023/10/13 07:44:19;;;;;;;18.88;6.40;;;;;;;;;;5097224;28;20074;-61
2023/10/13 07:46:57;;;;;;;13.45;5.70;;;;;;;;;;5092211;28;20052;-61
2023/10/13 07:49:24;;;;;;;14.63;5.93;;;;;;;;;;5080310;28;20055;-62
2023/10/13 07:51:56;;;;;;;17.73;5.65;;;;;;;;;;5093296;28;20048;-62
2023/10/13 07:54:23;;;;;;;20.83;7.00;;;;;;;;;;5093962;28;20503;-62
2023/10/13 07:56:50;;;;;;;16.95;7.25;;;;;;;;;;5104264;28;20086;-62
2023/10/13 07:59:16;;;;;;;14.27;6.38;;;;;;;;;;5093830;28;20051;-62
2023/10/13 08:01:43;;;;;;;16.38;6.30;;;;;;;;;;5103337;28;20036;-62
2023/10/13 08:06:36;;;;;;;15.95;6.47;;;;;;;;;;5108477;28;20056;-62
2023/10/13 08:09:29;;;;;;;17.67;6.60;;;;;;;;;;5112915;28;20487;-62
2023/10/13 08:11:54;;;;;;;20.73;7.40;;;;;;;;;;5103549;28;20052;-62
2023/10/13 08:14:29;;;;;;;23.85;7.72;;;;;;;;;;5106167;28;20118;-62
2023/10/13 08:16:59;;;;;;;17.55;6.55;;;;;;;;;;5113359;28;20062;-61
2023/10/13 08:19:44;;;;;;;10.93;5.75;;;;;;;;;;5110350;28;20094;-61
2023/10/13 08:45:20;;;;;;;15.50;8.30;;;;;;;;;;5092384;28;20043;-61
2023/10/13 08:48:12;;;;;;;24.25;8.57;;;;;;;;;;5092774;28;20048;-61
2023/10/13 09:07:29;;;;;;;16.73;9.00;;;;;;;;;;5110881;28;20054;-62
2023/10/13 09:17:43;;;;;;;14.45;8.77;;;;;;;;;;5107785;28;20464;-61
2023/10/13 09:25:33;;;;;;;14.90;8.05;;;;;;;;;;5091029;28;20075;-62
2023/10/13 09:28:00;;;;;;;14.65;6.35;;;;;;;;;;5101249;28;20090;-61
2023/10/13 09:30:31;;;;;;;15.95;6.15;;;;;;;;;;5088373;28;20044;-61
2023/10/13 09:33:15;;;;;;;20.02;6.03;;;;;;;;;;5092395;28;20084;-62
2023/10/13 09:35:51;;;;;;;14.32;6.43;;;;;;;;;;5107534;28;20164;-62
2023/10/13 09:38:17;;;;;;;15.15;5.65;;;;;;;;;;5090679;28;20051;-62
2023/10/13 09:40:50;;;;;;;11.02;5.00;;;;;;;;;;5089840;28;20048;-61
2023/10/13 09:43:19;;;;;;;14.45;5.63;;;;;;;;;;5112237;28;20046;-61
2023/10/13 09:46:07;;;;;;;13.15;6.30;;;;;;;;;;5096917;28;20048;-62
2023/10/13 09:48:33;;;;;;;12.93;5.55;;;;;;;;;;5102846;28;20105;-61
2023/10/13 09:51:08;;;;;;;14.85;5.32;;;;;;;;;;5098393;28;20043;-61
2023/10/13 09:53:37;;;;;;;14.38;5.25;;;;;;;;;;5098402;28;20051;-61
2023/10/13 09:56:14;;;;;;;13.73;6.45;;;;;;;;;;5108601;28;20044;-61
2023/10/13 09:58:50;;;;;;;13.77;6.00;;;;;;;;;;5092460;28;20048;-61
2023/10/13 10:01:21;;;;;;;16.15;5.63;;;;;;;;;;5083982;28;20051;-61
2023/10/13 10:03:52;;;;;;;12.85;5.60;;;;;;;;;;5074654;28;20080;-61
2023/10/13 10:06:30;;;;;;;11.15;5.10;;;;;;;;;;5088874;28;20052;-60
2023/10/13 10:09:12;;;;;;;19.77;5.75;;;;;;;;;;5112526;28;20040;-60
2023/10/13 10:11:40;;;;;;;16.35;5.82;;;;;;;;;;5114441;28;20093;-61
2023/10/13 10:14:24;;;;;;;15.00;5.20;;;;;;;;;;5114966;28;20052;-60
2023/10/13 10:16:59;;;;;;;13.25;5.22;;;;;;;;;;5090287;28;20083;-61
2023/10/13 10:19:27;;;;;;;16.48;5.63;;;;;;;;;;5094446;28;20040;-61
2023/10/13 10:22:16;;;;;;;13.80;5.30;;;;;;;;;;5085568;28;20058;-61
2023/10/13 10:24:43;;;;;;;13.45;4.13;;;;;;;;;;5073681;28;20067;-61
2023/10/13 10:27:14;;;;;;;12.18;4.63;;;;;;;;;;5099772;28;20090;-61
2023/10/13 10:29:41;;;;;;;14.30;4.20;;;;;;;;;;5106106;28;20514;-62
2023/10/13 10:32:18;;;;;;;11.80;4.65;;;;;;;;;;5111795;28;20051;-62
2023/10/13 10:34:45;;;;;;;17.27;4.45;;;;;;;;;;5094831;28;20063;-61
2023/10/13 10:37:12;;;;;;;15.63;5.20;;;;;;;;;;5092381;28;20048;-61
2023/10/13 10:39:45;;;;;;;15.88;5.28;;;;;;;;;;5093213;28;20051;-61
2023/10/13 10:42:23;;;;;;;10.65;4.78;;;;;;;;;;5092217;28;20127;-62
2023/10/13 10:44:55;;;;;;;15.48;5.10;;;19.40;99.90;;;;;;5096624;28;20054;-61
2023/10/13 10:47:30;;;;;;;16.27;4.72;;;;;;;;;;5092789;28;20096;-62
2023/10/13 10:49:57;;;;;;;20.88;4.38;;;;;;;;;;5094658;28;20044;-62
2023/10/13 10:52:26;;;;;;;15.50;4.97;;;;;;;;;;5094277;28;20044;-61
2023/10/13 10:54:59;;;;;;;8.57;4.30;;;;;;;;;;5094939;28;20088;-62
2023/10/13 10:57:28;;;;;;;16.05;4.85;;;;;;;;;;5113208;28;20491;-61
2023/10/13 11:00:14;;;;;;;17.88;4.68;;;;;;;;;;5085997;28;20796;-62
2023/10/13 11:02:41;;;;;;;19.25;4.72;;;;;;;;;;5084592;28;20044;-61
2023/10/13 11:05:10;;;;;;;13.32;4.90;;;;;;;;;;5093962;28;20097;-61
2023/10/13 11:07:36;;;;;;;15.13;4.55;;;19.70;99.90;;;;;;5095453;28;20126;-60
2023/10/13 11:10:19;;;;;;;16.52;5.65;;;;;;;;;;5094474;28;20124;-62
2023/10/13 11:12:55;;;;;;;13.85;5.13;;;;;;;;;;5096753;28;20048;-62
2023/10/13 11:15:33;;;;;;;12.38;4.68;;;;;;;;;;5090794;28;20090;-61
2023/10/13 11:17:59;;;;;;;16.33;4.32;;;;;;;;;;5093959;28;20491;-62
2023/10/13 11:20:25;;;;;;;15.77;5.10;;;;;;;;;;5102729;28;20074;-63
2023/10/13 11:22:52;;;;;;;13.70;4.82;;;;;;;;;;5092016;28;20076;-63
2023/10/13 11:25:34;;;;;;;14.20;4.47;;;;;;;;;;5093812;28;20047;-62
2023/10/13 11:28:31;;;;;;;17.08;5.45;;;19.90;99.90;;;;;;5089938;28;20036;-62
2023/10/13 11:31:19;;;;;;;14.25;5.75;;;;;;;;;;5083912;28;20088;-62
2023/10/13 11:33:49;;;;;;;14.15;4.65;;;;;;;;;;5093298;28;20087;-62
2023/10/13 11:36:23;;;;;;;19.52;5.80;;;;;;;;;;5091332;28;20054;-62
2023/10/13 11:41:15;;;;;;;13.65;4.85;;;;;;;;;;5114085;28;20043;-63
2023/10/13 11:51:44;;;;;;;14.98;5.07;;;;;;;;;;5112265;28;20480;-61
2023/10/13 11:54:11;;;;;;;15.05;5.05;;;;;;;;;;5113646;28;20043;-61
2023/10/13 11:56:38;;;;;;;15.43;4.88;;;;;;;;;;5114052;28;20126;-62
2023/10/13 11:59:05;;;;;;;14.90;5.20;;;;;;;;;;5112038;28;20043;-62
2023/10/13 12:12:21;;;;;;;13.57;5.70;;;;;;;;;;5100311;28;20048;-62
2023/10/13 12:14:56;;;;;;;15.70;5.80;;;;;;;;;;5113170;28;20044;-61
2023/10/13 12:17:34;;;;;;;14.50;5.78;;;;;;;;;;5113422;28;20357;-62
2023/10/13 12:20:05;;;;;;;19.08;5.88;;;;;;;;;;5113712;28;20112;-62
2023/10/13 12:22:51;;;;;;;17.40;5.63;;;;;;;;;;5110002;28;20509;-62
2023/10/13 12:25:44;;;;;;;17.17;6.47;;;;;;;;;;5111956;28;20050;-62
2023/10/13 12:28:18;;;;;;;18.48;6.47;;;;;;;;;;5112336;28;20061;-62
2023/10/13 12:30:53;;;;;;;13.93;5.57;;;;;;;;;;5105951;28;20032;-62
2023/10/13 12:33:25;;;;;;;19.05;6.60;;;;;;;;;;5072468;28;20135;-63
2023/10/13 12:36:09;;;;;;;11.55;5.82;;;;;;;;;;5072560;28;20048;-63
2023/10/13 12:52:53;;;;;;;16.38;6.10;;;;;;;;;;5088326;28;20135;-61
2023/10/13 12:55:06;;;;;;;13.70;6.22;;;;;;;;;;5069214;28;20052;-63
2023/10/13 12:57:32;;;;;;;15.98;6.20;;;;;;;;;;5072727;28;20080;-63
2023/10/13 12:59:58;;;;;;;18.58;5.70;;;;;;;;;;5072272;28;20041;-63
2023/10/13 13:02:25;;;;;;;23.83;6.43;;;;;;;;;;5072061;28;20040;-64
2023/10/13 13:05:01;;;;;;;16.08;6.50;;;;;;;;;;5071073;28;20477;-63
2023/10/13 13:07:31;;;;;;;19.15;6.45;;;;;;;;;;5106058;28;20082;-63
2023/10/13 13:09:59;;;;;;;15.57;5.90;;;;;;;;;;5111313;28;20071;-65
2023/10/13 13:12:28;;;;;;;16.52;6.00;;;;;;;;;;5112518;28;20048;-65
2023/10/13 13:14:55;;;;;;;19.73;6.28;;;;;;;;;;5088077;28;20044;-65
2023/10/13 13:17:24;;;;;;;12.35;4.93;;;;;;;;;;5092048;28;20048;-65
2023/10/13 13:19:50;;;;;;;17.05;7.30;;;;;;;;;;5092564;28;20040;-65
2023/10/13 13:22:17;;;;;;;17.52;7.05;;;;;;;;;;5093607;28;20040;-65
2023/10/13 13:24:44;;;;;;;16.45;6.57;;;;;;;;;;5096565;28;20045;-64
2023/10/13 13:27:13;;;;;;;15.98;6.25;;;;;;;;;;5110582;28;20075;-65
2023/10/13 13:29:40;;;;;;;21.92;6.25;;;;;;;;;;5116716;28;20051;-64
2023/10/13 13:32:07;;;;;;;20.67;6.03;;;18.80;99.90;;;;;;5116322;28;20044;-64
2023/10/13 13:34:33;;;;;;;20.23;6.60;;;;;;;;;;5116878;28;20128;-65
2023/10/13 13:37:00;;;;;;;18.75;6.40;;;;;;;;;;5097559;28;20043;-65
2023/10/13 13:39:30;;;;;;;11.10;5.25;;;;;;;;;;5075496;28;20520;-65
2023/10/13 13:41:59;;;;;;;13.65;5.60;;;;;;;;;;5075493;28;20077;-66
2023/10/13 13:44:35;;;;;;;24.03;8.07;;;;;;;;;;5074336;28;20179;-65
2023/10/13 13:47:11;;;;;;;16.92;6.15;;;;;;;;;;5101971;28;20044;-65
2023/10/13 13:49:40;;;;;;;12.50;5.22;;;;;;;;;;5115372;28;20043;-65
2023/10/13 13:52:06;;;;;;;19.38;6.68;;;;;;;;;;5115948;28;20496;-64
2023/10/13 13:54:32;;;;;;;17.92;6.75;;;;;;;;;;5116272;28;20055;-65
2023/10/13 13:56:58;;;;;;;13.27;4.78;;;;;;;;;;5110161;28;20055;-63
2023/10/13 13:59:25;;;;;;;19.90;6.47;;;;;;;;;;5114372;28;20552;-63
2023/10/13 14:01:52;;;;;;;20.05;6.35;;;;;;;;;;5079989;28;20052;-64
2023/10/13 14:04:19;;;;;;;22.00;6.30;;;;;;;;;;5115823;28;20050;-64
2023/10/13 14:06:45;;;;;;;20.92;6.30;;;;;;;;;;5115891;28;20261;-65
2023/10/13 14:09:15;;;;;;;13.45;5.38;;;;;;;;;;5114645;28;20100;-63
2023/10/13 14:16:53;;;;;;;22.13;6.65;;;;;;;;;;5110123;28;20059;-65
2023/10/13 14:19:28;;;;;;;19.25;6.15;;;;;;;;;;5114533;28;20058;-63
2023/10/13 14:21:55;;;;;;;19.33;6.07;;;;;;;;;;5115697;28;20089;-63
2023/10/13 14:24:28;;;;;;;15.52;5.65;;;;;;;;;;5111336;28;20036;-63
2023/10/13 14:27:18;;;;;;;17.30;5.78;;;;;;;;;;5095063;28;20048;-64
2023/10/13 14:29:44;;;;;;;16.23;5.72;;;;;;;;;;5093539;28;20052;-63
2023/10/13 14:32:12;;;;;;;15.90;5.63;;;;;;;;;;5092973;28;20044;-63
2023/10/13 14:34:39;;;;;;;19.80;6.07;;;;;;;;;;5094738;28;20571;-63
2023/10/13 14:37:04;;;;;;;16.42;5.47;;;;;;;;;;5114980;28;20085;-63
2023/10/13 14:39:34;;;;;;;13.50;5.63;;;;;;;;;;5098808;28;20071;-64
2023/10/13 14:42:00;;;;;;;18.75;6.10;;;;;;;;;;5095799;28;20051;-62
2023/10/13 14:44:26;;;;;;;16.90;6.95;;;;;;;;;;5096832;28;20058;-64
2023/10/13 14:46:56;;;;;;;13.13;5.07;;;;;;;;;;5094952;28;20091;-63
2023/10/13 14:49:22;;;;;;;17.33;6.30;;;;;;;;;;5097765;28;20047;-64
2023/10/13 14:51:49;;;;;;;22.10;8.55;;;;;;;;;;5103363;28;20557;-64
2023/10/13 14:54:15;;;;;;;15.45;8.30;;;;;;;;;;5092473;28;20071;-64
2023/10/13 14:56:42;;;;;;;13.13;5.32;;;;;;;;;;5092899;28;20039;-66
2023/10/13 14:59:16;;;;;;;15.00;6.80;;;;;;;;;;5103474;28;20055;-64
2023/10/13 15:01:42;;;;;;;21.98;7.80;;;;;;;;;;5100933;28;20048;-65
2023/10/13 15:04:09;;;;;;;17.17;7.15;;;;;;;;;;5091879;28;20075;-66
2023/10/13 15:06:35;;;;;;;26.15;8.65;;;;;;;;;;5085000;28;20386;-65
2023/10/13 15:09:03;;;;;;;20.42;8.40;;;;;;;;;;5094499;28;20043;-66
2023/10/13 15:11:38;;;;;;;19.00;8.20;;;;;;;;;;5092874;28;20205;-67
2023/10/13 15:14:08;;;;;;;15.30;7.28;;;;;;;;;;5097034;28;20074;-66
2023/10/13 15:16:34;;;;;;;22.67;8.18;;;;;;;;;;5082351;28;20108;-66
2023/10/13 15:19:02;;;;;;;21.80;8.20;;;;;;;;;;5095652;28;20040;-66
2023/10/13 15:21:35;;;;;;;22.38;8.15;;;;;;;;;;5089712;28;20047;-66
2023/10/13 15:24:41;;;;;;;27.42;8.63;;;;;;;;;;5107195;28;20506;-65
2023/10/13 15:27:02;;;;;;;18.52;8.57;;;;;;;;;;5099903;28;20044;-65
2023/10/13 15:29:35;;;;;;;17.55;7.88;;;;;;;;;;5109651;28;20157;-64
2023/10/13 15:34:27;;;;;;;22.65;10.20;;;;;;;;;;5100271;28;20137;-66
2023/10/13 15:36:55;;;;;;;18.80;8.88;;;;;;;;;;5094437;28;20036;-64
2023/10/13 15:39:24;;;;;;;18.70;9.98;;;;;;;;;;5113818;28;20088;-65
2023/10/13 15:41:53;;;;;;;22.63;9.65;;;;;;;;;;5101160;28;20376;-64
2023/10/13 15:44:20;;;;;;;25.88;9.38;;;;;;;;;;5095753;28;20040;-65
2023/10/13 15:46:49;;;;;;;20.67;8.48;;;;;;;;;;5104344;28;20134;-65
2023/10/13 15:49:16;;;;;;;21.35;8.77;;;;;;;;;;5092563;28;20108;-64
2023/10/13 15:51:42;;;;;;;16.83;8.07;;;;;;;;;;5090934;28;20396;-62
2023/10/13 15:54:14;;;;;;;15.40;6.97;;;;;;;;;;5089748;28;20044;-63
2023/10/13 15:56:41;;;;;;;13.70;6.07;;;;;;;;;;5085065;28;20165;-63
2023/10/13 15:59:07;;;;;;;13.10;7.22;;;;;;;;;;5090816;28;20101;-63
2023/10/13 16:01:34;;;;;;;16.33;6.22;;;;;;;;;;5087024;28;20422;-64
2023/10/13 16:04:07;;;;;;;16.98;6.38;;;;;;;;;;5092743;28;20052;-65
2023/10/13 16:06:33;;;;;;;13.75;5.90;;;;;;;;;;5092973;28;20523;-63
2023/10/13 16:09:01;;;;;;;10.40;5.20;;;;;;;;;;5097238;28;20084;-65
2023/10/13 16:11:27;;;;;;;18.83;5.72;;;;;;;;;;5092940;28;20097;-64
2023/10/13 16:13:53;;;;;;;12.38;6.20;;;;;;;;;;5093277;28;20043;-64
2023/10/13 16:16:23;;;;;;;14.32;5.82;;;;;;;;;;5090928;28;20377;-63
2023/10/13 16:18:50;;;;;;;12.50;4.45;;;;;;;;;;5099508;28;20055;-63
2023/10/13 16:21:16;;;;;;;14.45;5.68;;;;;;;;;;5104287;28;20048;-64
2023/10/13 16:23:45;;;;;;;11.82;4.90;;;;;;;;;;5103317;28;20052;-63
2023/10/13 16:26:11;;;;;;;12.80;3.87;;;;;;;;;;5086286;28;20048;-63
2023/10/13 16:28:40;;;;;;;18.25;4.78;;;;;;;;;;5090646;28;20044;-64
2023/10/13 16:31:07;;;;;;;15.30;4.25;;;;;;;;;;5089386;28;20074;-64
2023/10/13 16:33:35;;;;;;;10.30;3.53;;;;;;;;;;5092702;28;20403;-63
2023/10/13 16:36:05;;;;;;;10.45;3.83;;;;;;;;;;5095956;28;20048;-64
2023/10/13 16:38:31;;;;;;;9.80;3.65;;;;;;;;;;5088879;28;20048;-64
2023/10/13 16:40:57;;;;;;;11.18;3.35;;;;;;;;;;5090787;28;20044;-62
2023/10/13 16:43:23;;;;;;;12.57;4.28;;;;;;;;;;5091250;28;20066;-63
2023/10/13 16:45:50;;;;;;;11.48;4.78;;;;;;;;;;5093445;28;20044;-63
2023/10/13 16:48:16;;;;;;;11.80;3.92;;;;;;;;;;5092030;28;20481;-64
2023/10/13 16:50:47;;;;;;;12.05;3.78;;;;;;;;;;5091679;28;20050;-64
2023/10/13 16:53:13;;;;;;;17.23;4.85;;;;;;;;;;5092224;28;20418;-62
2023/10/13 16:55:41;;;;;;;13.48;4.32;;;;;;;;;;5074521;28;20043;-64
2023/10/13 16:58:11;;;;;;;10.15;4.25;;;;;;;;;;5106997;28;20575;-63
2023/10/13 17:00:38;;;;;;;15.95;4.57;;;;;;;;;;5124642;27;20060;-64
2023/10/13 17:03:06;;;;;;;14.15;5.45;;;;;;;;;;5089215;28;20051;-63
2023/10/13 17:05:45;;;;;;;11.88;4.72;;;;;;;;;;5091445;28;20047;-64
2023/10/13 17:08:13;;;;;;;12.63;5.07;;;;;;;;;;5090108;28;20071;-63
2023/10/13 17:10:39;;;;;;;15.68;5.80;;;;;;;;;;5089116;28;20350;-64
2023/10/13 17:13:06;;;;;;;14.80;6.07;;;;;;;;;;5072210;28;20041;-65
2023/10/13 17:15:32;;;;;;;14.70;5.75;;;;;;;;;;5072641;28;20136;-63
2023/10/13 17:17:59;;;;;;;17.42;6.05;;;;;;;;;;5090932;28;20051;-64
2023/10/13 17:20:25;;;;;;;15.68;6.53;;;;;;;;;;5091822;28;20060;-64
2023/10/13 17:22:55;;;;;;;11.15;5.88;;;;;;;;;;5091383;28;20059;-64
2023/10/13 17:25:22;;;;;;;17.25;6.38;;;;;;;;;;5089807;28;20048;-63
2023/10/13 17:27:48;;;;;;;16.98;6.82;;;;;;;;;;5091077;28;20055;-63
2023/10/13 17:30:14;;;;;;;14.43;6.47;;;;;;;;;;5092111;28;20063;-63
2023/10/13 17:32:44;;;;;;;15.68;6.18;;;;;;;;;;5092419;28;20105;-62
2023/10/13 17:35:13;;;;;;;20.77;6.10;;;;;;;;;;5087990;28;20055;-64
2023/10/13 17:37:42;;;;;;;17.60;6.72;;;;;;;;;;5090385;28;20067;-63
2023/10/13 17:40:15;;;;;;;16.47;6.87;;;;;;;;;;5099903;28;20093;-63
2023/10/13 17:42:41;;;;;;;16.30;6.22;;;;;;;;;;5102328;28;20489;-63
2023/10/13 17:45:09;;;;;;;20.00;6.18;;;;;;;;;;5090968;28;20484;-63
2023/10/13 17:47:37;;;;;;;22.02;5.68;;;;;;;;;;5092167;28;20091;-63
2023/10/13 17:50:07;;;;;;;16.45;5.80;;;;;;;;;;5089814;28;20128;-63
2023/10/13 17:52:36;;;;;;;15.50;6.07;;;;;;;;;;5105684;28;20051;-63
2023/10/13 17:55:02;;;;;;;12.48;5.93;;;;;;;;;;5101223;28;20071;-62
2023/10/13 17:57:28;;;;;;;13.82;5.82;;;;;;;;;;5092163;28;20044;-62
2023/10/13 17:59:54;;;;;;;15.70;5.45;;;;;;;;;;5091879;28;20055;-63
2023/10/13 18:02:20;;;;;;;11.30;5.40;;;;;;;;;;5083468;28;20508;-63
2023/10/13 18:04:46;;;;;;;18.92;5.88;;;;;;;;;;5071848;28;20186;-64
2023/10/13 18:07:12;;;;;;;18.92;5.50;;;;;;;;;;5089465;28;20399;-63
2023/10/13 18:09:41;;;;;;;15.95;6.30;;;;;;;;;;5095204;28;20040;-64
2023/10/13 18:12:10;;;;;;;16.60;6.72;;;;;;;;;;5101835;28;20052;-63
2023/10/13 18:14:36;;;;;;;20.52;5.82;;;;;;;;;;5102416;28;20067;-64
2023/10/13 18:17:04;;;;;;;16.92;5.85;;;;;;;;;;5086387;28;20412;-64
2023/10/13 18:19:30;;;;;;;17.65;6.20;;;;;;;;;;5087696;28;20045;-62
2023/10/13 18:21:58;;;;;;;19.48;6.45;;;;;;;;;;5095595;28;20040;-64
2023/10/13 18:24:26;;;;;;;18.42;7.10;;;;;;;;;;5088148;28;20404;-63